NZBA weather

Public forecast

Using degrees Celsius for public forecast. Weather courtesy of forecast.io.

Closest aviation weather report (METAR) to Balclutha Aerodrome

Closest report is Christchurch International Airport, 203.3 nm (376.6 km) NE. Retrieved 2020/08/13 10:30 UTC (26 minutes ago):

NZCH 131030Z AUTO 25006KT 9999 OVC041/// 06/03 Q1021 NOSIG

Closest aviation forecast (TAF) to Balclutha Aerodrome

Forecast is more than 12 hours old.

Closest forecast is Queenstown International Airport, 84.8 nm (157.0 km) NNW. Retrieved 2020/08/12 18:09 UTC (17 hours ago):

TAF NZQN 121709Z 1218/1312 02005KT 9999 SKC FM122200 18015KT 9999 SCT020 SCT040 BECMG 1310/1312 04005KT